sensor_id;sensor_type;location;lat;lon;timestamp;temperature;humidity
54832;DHT22;40730;53.068;6.572;2023-02-01T00:01:45;6.00;99.90
54832;DHT22;40730;53.068;6.572;2023-02-01T00:04:11;6.10;99.90
54832;DHT22;40730;53.068;6.572;2023-02-01T00:06:37;6.10;99.90
54832;DHT22;40730;53.068;6.572;2023-02-01T00:09:03;6.10;99.90
54832;DHT22;40730;53.068;6.572;2023-02-01T00:11:28;6.00;99.90
54832;DHT22;40730;53.068;6.572;2023-02-01T00:13:54;6.00;99.90
54832;DHT22;40730;53.068;6.572;2023-02-01T00:16:22;6.00;99.90
54832;DHT22;40730;53.068;6.572;2023-02-01T00:18:52;6.00;99.90
54832;DHT22;40730;53.068;6.572;2023-02-01T00:21:21;6.00;99.90
54832;DHT22;40730;53.068;6.572;2023-02-01T00:23:46;6.00;99.90
54832;DHT22;40730;53.068;6.572;2023-02-01T00:26:18;6.10;99.90
54832;DHT22;40730;53.068;6.572;2023-02-01T00:28:44;6.10;99.90
54832;DHT22;40730;53.068;6.572;2023-02-01T00:31:10;6.00;99.90
54832;DHT22;40730;53.068;6.572;2023-02-01T00:33:35;6.10;99.90
54832;DHT22;40730;53.068;6.572;2023-02-01T00:36:04;6.00;99.90
54832;DHT22;40730;53.068;6.572;2023-02-01T00:38:31;6.00;99.90
54832;DHT22;40730;53.068;6.572;2023-02-01T00:41:10;6.00;99.90
54832;DHT22;40730;53.068;6.572;2023-02-01T00:43:36;6.10;99.90
54832;DHT22;40730;53.068;6.572;2023-02-01T00:46:02;6.00;99.90
54832;DHT22;40730;53.068;6.572;2023-02-01T00:48:27;6.10;99.90
54832;DHT22;40730;53.068;6.572;2023-02-01T00:50:53;6.10;99.90
54832;DHT22;40730;53.068;6.572;2023-02-01T00:53:19;6.00;99.90
54832;DHT22;40730;53.068;6.572;2023-02-01T00:55:45;6.00;99.90
54832;DHT22;40730;53.068;6.572;2023-02-01T00:58:11;6.10;99.90
54832;DHT22;40730;53.068;6.572;2023-02-01T01:00:37;6.10;99.90
54832;DHT22;40730;53.068;6.572;2023-02-01T01:03:02;6.10;99.90
54832;DHT22;40730;53.068;6.572;2023-02-01T01:05:28;6.10;99.90
54832;DHT22;40730;53.068;6.572;2023-02-01T01:07:54;6.10;99.90
54832;DHT22;40730;53.068;6.572;2023-02-01T01:10:19;6.10;99.90
54832;DHT22;40730;53.068;6.572;2023-02-01T01:12:45;6.00;99.90
54832;DHT22;40730;53.068;6.572;2023-02-01T01:15:11;6.10;99.90
54832;DHT22;40730;53.068;6.572;2023-02-01T01:17:36;6.00;99.90
54832;DHT22;40730;53.068;6.572;2023-02-01T01:20:03;6.10;99.90
54832;DHT22;40730;53.068;6.572;2023-02-01T01:22:29;6.10;99.90
54832;DHT22;40730;53.068;6.572;2023-02-01T01:24:54;6.10;99.90
54832;DHT22;40730;53.068;6.572;2023-02-01T01:27:20;6.10;99.90
54832;DHT22;40730;53.068;6.572;2023-02-01T01:29:49;6.10;99.90
54832;DHT22;40730;53.068;6.572;2023-02-01T01:32:15;6.10;99.90
54832;DHT22;40730;53.068;6.572;2023-02-01T01:34:40;6.10;99.90
54832;DHT22;40730;53.068;6.572;2023-02-01T01:37:06;6.10;99.90
54832;DHT22;40730;53.068;6.572;2023-02-01T01:39:32;6.20;99.90
54832;DHT22;40730;53.068;6.572;2023-02-01T01:41:57;6.20;99.90
54832;DHT22;40730;53.068;6.572;2023-02-01T01:47:24;6.20;99.90
54832;DHT22;40730;53.068;6.572;2023-02-01T01:49:50;6.20;99.90
54832;DHT22;40730;53.068;6.572;2023-02-01T01:52:16;6.20;99.90
54832;DHT22;40730;53.068;6.572;2023-02-01T01:54:48;6.20;99.90
54832;DHT22;40730;53.068;6.572;2023-02-01T01:57:27;6.20;99.90
54832;DHT22;40730;53.068;6.572;2023-02-01T02:00:05;6.10;99.90
54832;DHT22;40730;53.068;6.572;2023-02-01T02:02:33;6.10;99.90
54832;DHT22;40730;53.068;6.572;2023-02-01T02:04:58;6.00;99.90
54832;DHT22;40730;53.068;6.572;2023-02-01T02:07:31;6.00;99.90
54832;DHT22;40730;53.068;6.572;2023-02-01T02:09:58;6.00;99.90
54832;DHT22;40730;53.068;6.572;2023-02-01T02:12:24;5.90;99.90
54832;DHT22;40730;53.068;6.572;2023-02-01T02:14:49;5.90;99.90
54832;DHT22;40730;53.068;6.572;2023-02-01T02:17:33;5.90;99.90
54832;DHT22;40730;53.068;6.572;2023-02-01T02:32:16;5.80;99.90
54832;DHT22;40730;53.068;6.572;2023-02-01T02:34:54;5.80;99.90
54832;DHT22;40730;53.068;6.572;2023-02-01T02:37:48;5.70;99.90
54832;DHT22;40730;53.068;6.572;2023-02-01T02:45:53;5.70;99.90
54832;DHT22;40730;53.068;6.572;2023-02-01T02:48:49;5.70;99.90
54832;DHT22;40730;53.068;6.572;2023-02-01T02:51:25;5.70;99.90
54832;DHT22;40730;53.068;6.572;2023-02-01T02:54:18;5.70;99.90
54832;DHT22;40730;53.068;6.572;2023-02-01T02:57:07;5.70;99.90
54832;DHT22;40730;53.068;6.572;2023-02-01T02:59:52;5.70;99.90
54832;DHT22;40730;53.068;6.572;2023-02-01T03:02:38;5.80;99.90
54832;DHT22;40730;53.068;6.572;2023-02-01T03:05:22;5.80;99.90
54832;DHT22;40730;53.068;6.572;2023-02-01T03:13:53;5.90;99.90
54832;DHT22;40730;53.068;6.572;2023-02-01T03:16:24;5.90;99.90
54832;DHT22;40730;53.068;6.572;2023-02-01T03:19:14;5.90;99.90
54832;DHT22;40730;53.068;6.572;2023-02-01T03:24:25;6.00;99.90
54832;DHT22;40730;53.068;6.572;2023-02-01T03:27:04;6.00;99.90
54832;DHT22;40730;53.068;6.572;2023-02-01T03:29:41;6.00;99.90
54832;DHT22;40730;53.068;6.572;2023-02-01T03:32:10;6.00;99.90
54832;DHT22;40730;53.068;6.572;2023-02-01T03:34:36;6.00;99.90
54832;DHT22;40730;53.068;6.572;2023-02-01T03:37:06;6.00;99.90
54832;DHT22;40730;53.068;6.572;2023-02-01T03:39:42;6.00;99.90
54832;DHT22;40730;53.068;6.572;2023-02-01T03:42:18;6.00;99.90
54832;DHT22;40730;53.068;6.572;2023-02-01T03:45:13;6.10;99.90
54832;DHT22;40730;53.068;6.572;2023-02-01T03:47:44;6.10;99.90
54832;DHT22;40730;53.068;6.572;2023-02-01T03:50:18;6.10;99.90
54832;DHT22;40730;53.068;6.572;2023-02-01T03:52:46;6.10;99.90
54832;DHT22;40730;53.068;6.572;2023-02-01T03:55:15;6.10;99.90
54832;DHT22;40730;53.068;6.572;2023-02-01T03:57:46;6.10;99.90
54832;DHT22;40730;53.068;6.572;2023-02-01T04:00:21;6.10;99.90
54832;DHT22;40730;53.068;6.572;2023-02-01T04:02:48;6.10;99.90
54832;DHT22;40730;53.068;6.572;2023-02-01T04:05:13;6.10;99.90
54832;DHT22;40730;53.068;6.572;2023-02-01T04:07:39;6.20;99.90
54832;DHT22;40730;53.068;6.572;2023-02-01T04:10:05;6.10;99.90
54832;DHT22;40730;53.068;6.572;2023-02-01T04:12:31;6.10;99.90
54832;DHT22;40730;53.068;6.572;2023-02-01T04:14:57;6.10;99.90
54832;DHT22;40730;53.068;6.572;2023-02-01T04:17:23;6.10;99.90
54832;DHT22;40730;53.068;6.572;2023-02-01T04:19:49;6.00;99.90
54832;DHT22;40730;53.068;6.572;2023-02-01T04:22:14;6.00;99.90
54832;DHT22;40730;53.068;6.572;2023-02-01T04:24:40;6.00;99.90
54832;DHT22;40730;53.068;6.572;2023-02-01T04:27:06;6.30;99.90
54832;DHT22;40730;53.068;6.572;2023-02-01T04:29:31;6.10;99.90
54832;DHT22;40730;53.068;6.572;2023-02-01T04:31:57;6.10;99.90
54832;DHT22;40730;53.068;6.572;2023-02-01T04:34:22;6.10;99.90
54832;DHT22;40730;53.068;6.572;2023-02-01T04:36:50;6.10;99.90
54832;DHT22;40730;53.068;6.572;2023-02-01T04:39:16;6.10;99.90
54832;DHT22;40730;53.068;6.572;2023-02-01T04:41:41;6.10;99.90
54832;DHT22;40730;53.068;6.572;2023-02-01T04:44:13;6.10;99.90
54832;DHT22;40730;53.068;6.572;2023-02-01T04:46:39;6.10;99.90
54832;DHT22;40730;53.068;6.572;2023-02-01T04:49:05;6.10;99.90
54832;DHT22;40730;53.068;6.572;2023-02-01T04:51:31;6.10;99.90
54832;DHT22;40730;53.068;6.572;2023-02-01T04:53:56;6.50;99.90
54832;DHT22;40730;53.068;6.572;2023-02-01T04:56:22;6.20;99.90
54832;DHT22;40730;53.068;6.572;2023-02-01T04:58:48;6.20;99.90
54832;DHT22;40730;53.068;6.572;2023-02-01T05:01:13;6.10;99.90
54832;DHT22;40730;53.068;6.572;2023-02-01T05:03:39;6.10;99.90
54832;DHT22;40730;53.068;6.572;2023-02-01T05:06:04;6.00;99.90
54832;DHT22;40730;53.068;6.572;2023-02-01T05:08:31;5.90;99.90
54832;DHT22;40730;53.068;6.572;2023-02-01T05:10:57;6.00;99.90
54832;DHT22;40730;53.068;6.572;2023-02-01T05:13:24;6.10;99.90
54832;DHT22;40730;53.068;6.572;2023-02-01T05:16:08;6.10;99.90
54832;DHT22;40730;53.068;6.572;2023-02-01T05:18:34;6.20;99.90
54832;DHT22;40730;53.068;6.572;2023-02-01T05:20:59;6.10;99.90
54832;DHT22;40730;53.068;6.572;2023-02-01T05:23:26;6.20;99.90
54832;DHT22;40730;53.068;6.572;2023-02-01T05:25:51;6.20;99.90
54832;DHT22;40730;53.068;6.572;2023-02-01T05:28:17;6.10;99.90
54832;DHT22;40730;53.068;6.572;2023-02-01T05:30:43;6.10;99.90
54832;DHT22;40730;53.068;6.572;2023-02-01T05:33:08;6.10;99.90
54832;DHT22;40730;53.068;6.572;2023-02-01T05:35:34;6.10;99.90
54832;DHT22;40730;53.068;6.572;2023-02-01T05:37:59;6.10;99.90
54832;DHT22;40730;53.068;6.572;2023-02-01T05:40:25;6.00;99.90
54832;DHT22;40730;53.068;6.572;2023-02-01T05:42:50;6.10;99.90
54832;DHT22;40730;53.068;6.572;2023-02-01T05:45:16;6.10;99.90
54832;DHT22;40730;53.068;6.572;2023-02-01T05:47:42;6.20;99.90
54832;DHT22;40730;53.068;6.572;2023-02-01T05:50:08;6.20;99.90
54832;DHT22;40730;53.068;6.572;2023-02-01T05:52:33;6.20;99.90
54832;DHT22;40730;53.068;6.572;2023-02-01T05:54:59;6.20;99.90
54832;DHT22;40730;53.068;6.572;2023-02-01T05:57:25;6.20;99.90
54832;DHT22;40730;53.068;6.572;2023-02-01T05:59:50;6.30;99.90
54832;DHT22;40730;53.068;6.572;2023-02-01T06:02:16;6.30;99.90
54832;DHT22;40730;53.068;6.572;2023-02-01T06:04:42;5.90;99.90
54832;DHT22;40730;53.068;6.572;2023-02-01T06:07:09;6.40;99.90
54832;DHT22;40730;53.068;6.572;2023-02-01T06:09:36;6.40;99.90
54832;DHT22;40730;53.068;6.572;2023-02-01T06:12:03;6.30;99.90
54832;DHT22;40730;53.068;6.572;2023-02-01T06:14:28;6.30;99.90
54832;DHT22;40730;53.068;6.572;2023-02-01T06:16:54;6.40;99.90
54832;DHT22;40730;53.068;6.572;2023-02-01T06:19:21;6.30;99.90
54832;DHT22;40730;53.068;6.572;2023-02-01T06:21:47;6.30;99.90
54832;DHT22;40730;53.068;6.572;2023-02-01T06:24:12;6.30;99.90
54832;DHT22;40730;53.068;6.572;2023-02-01T06:26:38;6.30;99.90
54832;DHT22;40730;53.068;6.572;2023-02-01T06:29:05;6.30;99.90
54832;DHT22;40730;53.068;6.572;2023-02-01T06:31:32;6.20;99.90
54832;DHT22;40730;53.068;6.572;2023-02-01T06:33:58;6.10;99.90
54832;DHT22;40730;53.068;6.572;2023-02-01T06:36:23;6.00;99.90
54832;DHT22;40730;53.068;6.572;2023-02-01T06:38:49;6.00;99.90
54832;DHT22;40730;53.068;6.572;2023-02-01T06:41:15;5.90;99.90
54832;DHT22;40730;53.068;6.572;2023-02-01T06:43:41;5.90;99.90
54832;DHT22;40730;53.068;6.572;2023-02-01T06:46:09;5.90;99.90
54832;DHT22;40730;53.068;6.572;2023-02-01T06:48:36;5.90;99.90
54832;DHT22;40730;53.068;6.572;2023-02-01T06:51:02;6.00;99.90
54832;DHT22;40730;53.068;6.572;2023-02-01T06:53:28;6.00;99.90
54832;DHT22;40730;53.068;6.572;2023-02-01T06:55:58;6.10;99.90
54832;DHT22;40730;53.068;6.572;2023-02-01T06:58:31;6.10;99.90
54832;DHT22;40730;53.068;6.572;2023-02-01T07:00:57;6.20;99.90
54832;DHT22;40730;53.068;6.572;2023-02-01T07:03:23;6.10;99.90
54832;DHT22;40730;53.068;6.572;2023-02-01T07:05:49;6.20;99.90
54832;DHT22;40730;53.068;6.572;2023-02-01T07:08:14;6.10;99.90
54832;DHT22;40730;53.068;6.572;2023-02-01T07:10:40;6.10;99.90
54832;DHT22;40730;53.068;6.572;2023-02-01T07:13:06;6.20;99.90
54832;DHT22;40730;53.068;6.572;2023-02-01T07:15:31;6.10;99.90
54832;DHT22;40730;53.068;6.572;2023-02-01T07:17:57;6.10;99.90
54832;DHT22;40730;53.068;6.572;2023-02-01T07:20:23;6.20;99.90
54832;DHT22;40730;53.068;6.572;2023-02-01T07:22:48;6.20;99.90
54832;DHT22;40730;53.068;6.572;2023-02-01T07:25:19;6.20;99.90
54832;DHT22;40730;53.068;6.572;2023-02-01T07:27:45;6.20;99.90
54832;DHT22;40730;53.068;6.572;2023-02-01T07:30:12;6.20;99.90
54832;DHT22;40730;53.068;6.572;2023-02-01T07:32:37;6.20;99.90
54832;DHT22;40730;53.068;6.572;2023-02-01T07:35:03;6.30;99.90
54832;DHT22;40730;53.068;6.572;2023-02-01T07:37:29;6.30;99.90
54832;DHT22;40730;53.068;6.572;2023-02-01T07:39:56;6.30;99.90
54832;DHT22;40730;53.068;6.572;2023-02-01T07:42:21;6.30;99.90
54832;DHT22;40730;53.068;6.572;2023-02-01T07:44:47;6.30;99.90
54832;DHT22;40730;53.068;6.572;2023-02-01T07:47:12;6.30;99.90
54832;DHT22;40730;53.068;6.572;2023-02-01T07:49:38;6.30;99.90
54832;DHT22;40730;53.068;6.572;2023-02-01T07:52:04;6.30;99.90
54832;DHT22;40730;53.068;6.572;2023-02-01T07:54:29;6.30;99.90
54832;DHT22;40730;53.068;6.572;2023-02-01T07:56:55;6.30;99.90
54832;DHT22;40730;53.068;6.572;2023-02-01T07:59:21;6.30;99.90
54832;DHT22;40730;53.068;6.572;2023-02-01T08:01:46;6.30;99.90
54832;DHT22;40730;53.068;6.572;2023-02-01T08:04:12;6.30;99.90
54832;DHT22;40730;53.068;6.572;2023-02-01T08:06:38;6.30;99.90
54832;DHT22;40730;53.068;6.572;2023-02-01T08:09:05;6.30;99.90
54832;DHT22;40730;53.068;6.572;2023-02-01T08:11:31;6.30;99.90
54832;DHT22;40730;53.068;6.572;2023-02-01T08:13:57;6.30;99.90
54832;DHT22;40730;53.068;6.572;2023-02-01T08:16:23;6.30;99.90
54832;DHT22;40730;53.068;6.572;2023-02-01T08:18:49;6.30;99.90
54832;DHT22;40730;53.068;6.572;2023-02-01T08:21:17;6.30;99.90
54832;DHT22;40730;53.068;6.572;2023-02-01T08:23:43;6.30;99.90
54832;DHT22;40730;53.068;6.572;2023-02-01T08:26:13;6.30;99.90
54832;DHT22;40730;53.068;6.572;2023-02-01T08:28:41;6.30;99.90
54832;DHT22;40730;53.068;6.572;2023-02-01T08:31:10;6.30;99.90
54832;DHT22;40730;53.068;6.572;2023-02-01T08:33:36;6.30;99.90
54832;DHT22;40730;53.068;6.572;2023-02-01T08:36:09;6.40;99.90
54832;DHT22;40730;53.068;6.572;2023-02-01T08:38:36;6.40;99.90
54832;DHT22;40730;53.068;6.572;2023-02-01T08:41:10;6.30;99.90
54832;DHT22;40730;53.068;6.572;2023-02-01T08:43:36;6.40;99.90
54832;DHT22;40730;53.068;6.572;2023-02-01T08:46:03;6.40;99.90
54832;DHT22;40730;53.068;6.572;2023-02-01T08:48:29;6.40;99.90
54832;DHT22;40730;53.068;6.572;2023-02-01T08:50:55;6.40;99.90
54832;DHT22;40730;53.068;6.572;2023-02-01T08:53:20;6.50;99.90
54832;DHT22;40730;53.068;6.572;2023-02-01T08:55:47;6.50;99.90
54832;DHT22;40730;53.068;6.572;2023-02-01T08:58:13;6.50;99.90
54832;DHT22;40730;53.068;6.572;2023-02-01T09:00:39;6.50;99.90
54832;DHT22;40730;53.068;6.572;2023-02-01T09:03:05;6.50;99.90
54832;DHT22;40730;53.068;6.572;2023-02-01T09:05:31;6.50;99.90
54832;DHT22;40730;53.068;6.572;2023-02-01T09:07:57;6.50;99.90
54832;DHT22;40730;53.068;6.572;2023-02-01T09:10:22;6.50;99.90
54832;DHT22;40730;53.068;6.572;2023-02-01T09:12:48;6.50;99.90
54832;DHT22;40730;53.068;6.572;2023-02-01T09:15:13;6.50;99.90
54832;DHT22;40730;53.068;6.572;2023-02-01T09:17:39;6.50;99.90
54832;DHT22;40730;53.068;6.572;2023-02-01T09:20:08;6.50;99.90
54832;DHT22;40730;53.068;6.572;2023-02-01T09:22:34;6.50;99.90
54832;DHT22;40730;53.068;6.572;2023-02-01T09:24:59;6.50;99.90
54832;DHT22;40730;53.068;6.572;2023-02-01T09:27:25;6.50;99.90
54832;DHT22;40730;53.068;6.572;2023-02-01T09:29:50;6.50;99.90
54832;DHT22;40730;53.068;6.572;2023-02-01T09:32:19;6.50;99.90
54832;DHT22;40730;53.068;6.572;2023-02-01T09:34:45;6.50;99.90
54832;DHT22;40730;53.068;6.572;2023-02-01T09:37:10;6.50;99.90
54832;DHT22;40730;53.068;6.572;2023-02-01T09:39:36;6.50;99.90
54832;DHT22;40730;53.068;6.572;2023-02-01T09:47:26;6.50;99.90
54832;DHT22;40730;53.068;6.572;2023-02-01T09:50:14;6.60;99.90
54832;DHT22;40730;53.068;6.572;2023-02-01T09:53:02;6.50;99.90
54832;DHT22;40730;53.068;6.572;2023-02-01T09:56:05;6.40;99.90
54832;DHT22;40730;53.068;6.572;2023-02-01T09:58:44;6.30;99.90
54832;DHT22;40730;53.068;6.572;2023-02-01T10:01:24;6.30;99.90
54832;DHT22;40730;53.068;6.572;2023-02-01T10:03:57;6.30;99.90
54832;DHT22;40730;53.068;6.572;2023-02-01T10:07:28;6.30;99.90
54832;DHT22;40730;53.068;6.572;2023-02-01T10:13:05;6.30;99.90
54832;DHT22;40730;53.068;6.572;2023-02-01T10:15:35;6.30;99.90
54832;DHT22;40730;53.068;6.572;2023-02-01T10:26:21;6.30;99.90
54832;DHT22;40730;53.068;6.572;2023-02-01T10:28:51;6.30;99.90
54832;DHT22;40730;53.068;6.572;2023-02-01T10:31:17;6.30;99.90
54832;DHT22;40730;53.068;6.572;2023-02-01T10:33:47;6.30;99.90
54832;DHT22;40730;53.068;6.572;2023-02-01T10:36:28;6.30;99.90
54832;DHT22;40730;53.068;6.572;2023-02-01T10:38:56;6.40;99.90
54832;DHT22;40730;53.068;6.572;2023-02-01T10:41:23;6.50;99.90
54832;DHT22;40730;53.068;6.572;2023-02-01T10:43:54;6.50;99.90
54832;DHT22;40730;53.068;6.572;2023-02-01T10:46:25;6.50;99.90
54832;DHT22;40730;53.068;6.572;2023-02-01T10:48:53;6.60;99.90
54832;DHT22;40730;53.068;6.572;2023-02-01T10:54:21;6.80;99.90
54832;DHT22;40730;53.068;6.572;2023-02-01T10:56:49;6.80;99.90
54832;DHT22;40730;53.068;6.572;2023-02-01T10:59:20;6.80;99.90
54832;DHT22;40730;53.068;6.572;2023-02-01T11:01:48;6.80;99.90
54832;DHT22;40730;53.068;6.572;2023-02-01T11:04:19;6.80;99.90
54832;DHT22;40730;53.068;6.572;2023-02-01T11:07:13;6.80;99.90
54832;DHT22;40730;53.068;6.572;2023-02-01T11:09:49;6.80;99.90
54832;DHT22;40730;53.068;6.572;2023-02-01T11:12:38;6.80;99.90
54832;DHT22;40730;53.068;6.572;2023-02-01T11:15:21;6.80;99.90
54832;DHT22;40730;53.068;6.572;2023-02-01T11:17:49;6.80;99.90
54832;DHT22;40730;53.068;6.572;2023-02-01T11:20:38;6.80;99.90
54832;DHT22;40730;53.068;6.572;2023-02-01T11:23:15;6.80;99.90
54832;DHT22;40730;53.068;6.572;2023-02-01T11:26:11;6.70;99.90
54832;DHT22;40730;53.068;6.572;2023-02-01T11:28:38;6.70;99.90
54832;DHT22;40730;53.068;6.572;2023-02-01T11:31:09;6.70;99.90
54832;DHT22;40730;53.068;6.572;2023-02-01T11:33:37;6.70;99.90
54832;DHT22;40730;53.068;6.572;2023-02-01T11:36:16;6.80;99.90
54832;DHT22;40730;53.068;6.572;2023-02-01T11:39:10;7.10;99.90
54832;DHT22;40730;53.068;6.572;2023-02-01T11:41:42;7.10;99.90
54832;DHT22;40730;53.068;6.572;2023-02-01T11:46:56;7.00;99.90
54832;DHT22;40730;53.068;6.572;2023-02-01T11:49:37;6.90;99.90
54832;DHT22;40730;53.068;6.572;2023-02-01T11:54:57;6.90;99.90
54832;DHT22;40730;53.068;6.572;2023-02-01T11:57:57;6.90;99.90
54832;DHT22;40730;53.068;6.572;2023-02-01T12:06:08;7.20;99.90
54832;DHT22;40730;53.068;6.572;2023-02-01T12:14:33;7.50;99.90
54832;DHT22;40730;53.068;6.572;2023-02-01T12:20:08;7.80;99.90
54832;DHT22;40730;53.068;6.572;2023-02-01T12:33:44;8.00;99.90
54832;DHT22;40730;53.068;6.572;2023-02-01T12:41:40;7.80;99.90
54832;DHT22;40730;53.068;6.572;2023-02-01T12:44:34;7.70;99.90
54832;DHT22;40730;53.068;6.572;2023-02-01T12:50:18;7.40;99.90
54832;DHT22;40730;53.068;6.572;2023-02-01T12:52:49;7.40;99.90
54832;DHT22;40730;53.068;6.572;2023-02-01T12:55:36;7.50;99.90
54832;DHT22;40730;53.068;6.572;2023-02-01T12:58:11;7.50;99.90
54832;DHT22;40730;53.068;6.572;2023-02-01T13:00:39;7.60;99.90
54832;DHT22;40730;53.068;6.572;2023-02-01T13:03:22;7.70;99.90
54832;DHT22;40730;53.068;6.572;2023-02-01T13:05:58;7.90;99.90
54832;DHT22;40730;53.068;6.572;2023-02-01T13:08:31;8.00;99.90
54832;DHT22;40730;53.068;6.572;2023-02-01T13:11:06;7.90;99.90
54832;DHT22;40730;53.068;6.572;2023-02-01T13:14:00;7.90;99.90
54832;DHT22;40730;53.068;6.572;2023-02-01T13:16:34;7.80;99.90
54832;DHT22;40730;53.068;6.572;2023-02-01T13:19:14;7.80;99.90
54832;DHT22;40730;53.068;6.572;2023-02-01T13:21:46;7.70;99.90
54832;DHT22;40730;53.068;6.572;2023-02-01T13:26:54;7.70;99.90
54832;DHT22;40730;53.068;6.572;2023-02-01T13:29:21;7.70;99.90
54832;DHT22;40730;53.068;6.572;2023-02-01T13:32:06;7.70;99.90
54832;DHT22;40730;53.068;6.572;2023-02-01T13:40:12;7.80;99.90
54832;DHT22;40730;53.068;6.572;2023-02-01T13:45:29;7.70;99.90
54832;DHT22;40730;53.068;6.572;2023-02-01T13:47:59;7.70;99.90
54832;DHT22;40730;53.068;6.572;2023-02-01T13:50:34;7.70;99.90
54832;DHT22;40730;53.068;6.572;2023-02-01T13:55:43;7.80;99.90
54832;DHT22;40730;53.068;6.572;2023-02-01T14:00:37;7.70;99.90
54832;DHT22;40730;53.068;6.572;2023-02-01T14:10:57;7.80;99.90
54832;DHT22;40730;53.068;6.572;2023-02-01T14:21:32;7.70;99.90
54832;DHT22;40730;53.068;6.572;2023-02-01T14:24:20;7.70;99.90
54832;DHT22;40730;53.068;6.572;2023-02-01T14:26:49;7.70;99.90
54832;DHT22;40730;53.068;6.572;2023-02-01T14:47:53;7.80;99.90
54832;DHT22;40730;53.068;6.572;2023-02-01T14:50:33;7.90;99.90
54832;DHT22;40730;53.068;6.572;2023-02-01T14:55:48;7.80;99.90
54832;DHT22;40730;53.068;6.572;2023-02-01T15:01:24;7.80;99.90
54832;DHT22;40730;53.068;6.572;2023-02-01T15:06:54;7.60;99.90
54832;DHT22;40730;53.068;6.572;2023-02-01T15:09:43;7.60;99.90
54832;DHT22;40730;53.068;6.572;2023-02-01T15:17:19;7.60;99.90
54832;DHT22;40730;53.068;6.572;2023-02-01T15:20:14;7.70;99.90
54832;DHT22;40730;53.068;6.572;2023-02-01T15:22:42;7.60;99.90
54832;DHT22;40730;53.068;6.572;2023-02-01T15:25:27;7.60;99.90
54832;DHT22;40730;53.068;6.572;2023-02-01T15:27:53;7.60;99.90
54832;DHT22;40730;53.068;6.572;2023-02-01T15:30:28;7.60;99.90
54832;DHT22;40730;53.068;6.572;2023-02-01T15:43:22;7.60;99.90
54832;DHT22;40730;53.068;6.572;2023-02-01T15:45:48;7.60;99.90
54832;DHT22;40730;53.068;6.572;2023-02-01T15:48:22;7.50;99.90
54832;DHT22;40730;53.068;6.572;2023-02-01T15:50:49;7.40;99.90
54832;DHT22;40730;53.068;6.572;2023-02-01T15:53:23;7.30;99.90
54832;DHT22;40730;53.068;6.572;2023-02-01T15:55:55;7.30;99.90
54832;DHT22;40730;53.068;6.572;2023-02-01T15:58:23;7.20;99.90
54832;DHT22;40730;53.068;6.572;2023-02-01T16:01:02;7.20;99.90
54832;DHT22;40730;53.068;6.572;2023-02-01T16:06:02;7.10;99.90
54832;DHT22;40730;53.068;6.572;2023-02-01T16:08:30;7.10;99.90
54832;DHT22;40730;53.068;6.572;2023-02-01T16:13:33;7.20;99.90
54832;DHT22;40730;53.068;6.572;2023-02-01T16:15:59;7.20;99.90
54832;DHT22;40730;53.068;6.572;2023-02-01T16:18:25;7.20;99.90
54832;DHT22;40730;53.068;6.572;2023-02-01T16:20:50;7.20;99.90
54832;DHT22;40730;53.068;6.572;2023-02-01T16:23:16;7.20;99.90
54832;DHT22;40730;53.068;6.572;2023-02-01T16:25:42;7.20;99.90
54832;DHT22;40730;53.068;6.572;2023-02-01T16:28:07;7.10;99.90
54832;DHT22;40730;53.068;6.572;2023-02-01T16:30:34;7.00;99.90
54832;DHT22;40730;53.068;6.572;2023-02-01T16:33:01;7.00;99.90
54832;DHT22;40730;53.068;6.572;2023-02-01T16:35:35;6.90;99.90
54832;DHT22;40730;53.068;6.572;2023-02-01T16:38:07;6.90;99.90
54832;DHT22;40730;53.068;6.572;2023-02-01T16:40:38;6.80;99.90
54832;DHT22;40730;53.068;6.572;2023-02-01T16:43:17;6.70;99.90
54832;DHT22;40730;53.068;6.572;2023-02-01T16:45:44;6.70;99.90
54832;DHT22;40730;53.068;6.572;2023-02-01T16:48:26;6.60;99.90
54832;DHT22;40730;53.068;6.572;2023-02-01T16:50:58;6.60;99.90
54832;DHT22;40730;53.068;6.572;2023-02-01T16:53:26;6.60;99.90
54832;DHT22;40730;53.068;6.572;2023-02-01T16:55:53;6.50;99.90
54832;DHT22;40730;53.068;6.572;2023-02-01T16:58:19;6.50;99.90
54832;DHT22;40730;53.068;6.572;2023-02-01T17:00:46;6.40;99.90
54832;DHT22;40730;53.068;6.572;2023-02-01T17:03:12;6.40;99.90
54832;DHT22;40730;53.068;6.572;2023-02-01T17:05:50;6.40;99.90
54832;DHT22;40730;53.068;6.572;2023-02-01T17:08:21;6.40;99.90
54832;DHT22;40730;53.068;6.572;2023-02-01T17:10:47;6.40;99.90
54832;DHT22;40730;53.068;6.572;2023-02-01T17:13:14;6.50;99.90
54832;DHT22;40730;53.068;6.572;2023-02-01T17:16:05;6.50;99.90
54832;DHT22;40730;53.068;6.572;2023-02-01T17:18:36;6.50;99.90
54832;DHT22;40730;53.068;6.572;2023-02-01T17:21:03;6.80;99.90
54832;DHT22;40730;53.068;6.572;2023-02-01T17:23:30;6.50;99.90
54832;DHT22;40730;53.068;6.572;2023-02-01T17:25:56;6.50;99.90
54832;DHT22;40730;53.068;6.572;2023-02-01T17:28:23;6.50;99.90
54832;DHT22;40730;53.068;6.572;2023-02-01T17:30:48;6.60;99.90
54832;DHT22;40730;53.068;6.572;2023-02-01T17:33:25;6.50;99.90
54832;DHT22;40730;53.068;6.572;2023-02-01T17:35:53;6.50;99.90
54832;DHT22;40730;53.068;6.572;2023-02-01T17:38:19;6.50;99.90
54832;DHT22;40730;53.068;6.572;2023-02-01T17:40:44;6.50;99.90
54832;DHT22;40730;53.068;6.572;2023-02-01T17:43:19;6.90;99.90
54832;DHT22;40730;53.068;6.572;2023-02-01T17:45:51;6.50;99.90
54832;DHT22;40730;53.068;6.572;2023-02-01T17:48:19;6.50;99.90
54832;DHT22;40730;53.068;6.572;2023-02-01T17:50:47;6.40;99.90
54832;DHT22;40730;53.068;6.572;2023-02-01T17:53:14;6.40;99.90
54832;DHT22;40730;53.068;6.572;2023-02-01T17:55:43;6.30;99.90
54832;DHT22;40730;53.068;6.572;2023-02-01T17:58:14;6.30;99.90
54832;DHT22;40730;53.068;6.572;2023-02-01T18:00:41;6.30;99.90
54832;DHT22;40730;53.068;6.572;2023-02-01T18:03:22;6.30;99.90
54832;DHT22;40730;53.068;6.572;2023-02-01T18:05:48;6.40;99.90
54832;DHT22;40730;53.068;6.572;2023-02-01T18:08:21;6.30;99.90
54832;DHT22;40730;53.068;6.572;2023-02-01T18:10:49;6.30;99.90
54832;DHT22;40730;53.068;6.572;2023-02-01T18:13:15;6.20;99.90
54832;DHT22;40730;53.068;6.572;2023-02-01T18:15:40;6.20;99.90
54832;DHT22;40730;53.068;6.572;2023-02-01T18:18:06;6.20;99.90
54832;DHT22;40730;53.068;6.572;2023-02-01T18:20:31;6.30;99.90
54832;DHT22;40730;53.068;6.572;2023-02-01T18:22:57;6.30;99.90
54832;DHT22;40730;53.068;6.572;2023-02-01T18:25:29;6.30;99.90
54832;DHT22;40730;53.068;6.572;2023-02-01T18:27:58;6.20;99.90
54832;DHT22;40730;53.068;6.572;2023-02-01T18:30:28;6.20;99.90
54832;DHT22;40730;53.068;6.572;2023-02-01T18:32:55;6.20;99.90
54832;DHT22;40730;53.068;6.572;2023-02-01T18:35:26;6.20;99.90
54832;DHT22;40730;53.068;6.572;2023-02-01T18:37:53;6.20;99.90
54832;DHT22;40730;53.068;6.572;2023-02-01T18:40:22;6.30;99.90
54832;DHT22;40730;53.068;6.572;2023-02-01T18:42:49;6.30;99.90
54832;DHT22;40730;53.068;6.572;2023-02-01T18:45:26;6.40;99.90
54832;DHT22;40730;53.068;6.572;2023-02-01T18:47:53;6.30;99.90
54832;DHT22;40730;53.068;6.572;2023-02-01T18:50:19;6.30;99.90
54832;DHT22;40730;53.068;6.572;2023-02-01T18:52:45;6.40;99.90